Aeroporto :
LOGIN :

Iscrizione | Disclaimer

   EN    FR    IT 

 










Sommario :    VFR   VFR Marginale   IFR   IFR Intensivo   IFR Molto Intensivo
Visibilità : 
Base nubi : 
>= 8 km
>= 3000ft
5 / 8 km
1000 / 3000 ft
1500m / 5 km
500 / 1000 ft
800 / 1500m
200 / 500 ft
< 800m
< 200 ft
Simboli :   Temporali  Nebbia  Neve Forte  Precipitazioni Forti  Vento > 20 kt
SIGMETs :   Varie  Temporali  Ghiacco  Turbolenza  Onda orograficha  Ceneri Vulcaniche







- Altitudine del aeroporto : 268 ft
- Codice IATA : BFS
- Carte del aeroporto


EGAA - Belfast Aldergrove

ULTIMO METAR :
  • 161950Z 08004KT 9999 FEW010 SCT039 12/11 Q1004

METARs OBSOLETI :
  • 161920Z VRB02KT 9999 7000E -RA SCT026 BKN037 12/10 Q1005 RERA
  • 161850Z 13007KT 100V180 7000 SHRA SCT016 SCT035 BKN041 12/10 Q1005
  • 161820Z 13009KT 9999 -SHRA FEW016 SCT020 13/09 Q1006
  • 161750Z 13009KT 9999 FEW024 14/08 Q1006
  • 161720Z 12008KT 090V160 9999 FEW024 15/09 Q1006

TAF AMD TAF EGAA
Valido dal 16 a 19 ore il 17 a 18 ore UTC


161933Z 1619/1718 19009KT 9999 SCT035
TEMPO 1619/1624 6000 SHRA
PROB30
TEMPO 1619/1622 14015G25KT 3000 +SHRA +TSRA BKN011 BKN020CB
PROB30
TEMPO 1700/1708 BKN011
TEMPO 1709/1718 21016G26KT 7000 SHRA
PROB30
TEMPO 1711/1718 4000 +SHRA
Nessun NOTAM noto per questo aeroporto.



MetMap, La meteo Aeronautica in un colpo d'occhio ! - Copyright ORBIFLY Dicembre 2007 - Disclaimer

ORBIFLY MET'MAP TEAM :

Programmazione e sviluppo : Alexandra Zaïnal
Concezione e sviluppo : Baudouin d'Aumeries
Co-Programmazione e sviluppo : Marc-Olivier Méhu
Supporto tecnico e logistico : Manuel Goepfert
Aiuto per la traduzione : Arnaldo La Scala

Contatto : metmap@orbifly.com




FONTI E CREDITI :

   NOAA